Time;durP1;ratioP1;P1;durP2;ratioP2;P2;SDS_P1;SDS_P2;PMS_P1;PMS_P2;Temp;Humidity;BMP_temperature;BMP_pressure;BME280_temperature;BME280_humidity;BME280_pressure;Samples;Min_cycle;Max_cycle;Signal;HPM_P1;HPM_P2
2022/06/05 00:00:11;;;;;;;15.53;10.03;;;;;;;;;;5037223;28;20207;-77
2022/06/05 00:02:45;;;;;;;15.37;10.50;;;;;;;;;;5039713;28;20213;-76
2022/06/05 00:05:15;;;;;;;13.80;9.87;;;;;;;;;;5041352;28;20258;-77
2022/06/05 00:07:47;;;;;;;16.53;10.00;;;;;;;;;;5043426;28;20203;-77
2022/06/05 00:10:18;;;;;;;14.53;10.30;;;;;;;;;;5039270;28;20211;-77
2022/06/05 00:12:47;;;;;;;13.10;9.83;;;;;;;;;;5039929;28;20685;-77
2022/06/05 00:15:15;;;;;;;17.10;9.73;;;;;;;;;;5043157;28;20305;-77
2022/06/05 00:17:42;;;;;;;12.67;9.80;;;;;;;;;;5039500;28;20631;-77
2022/06/05 00:20:10;;;;;;;14.03;9.43;;;;;;;;;;5042040;28;20286;-77
2022/06/05 00:22:39;;;;;;;11.87;7.97;;;;;;;;;;5040602;28;20203;-77
2022/06/05 00:25:08;;;;;;;10.87;7.40;;;;;;;;;;5043776;28;20242;-77
2022/06/05 00:27:39;;;;;;;11.23;7.23;;;;;;;;;;5045017;28;20779;-76
2022/06/05 00:30:09;;;;;;;18.00;8.23;;;;;;;;;;5037968;28;20290;-75
2022/06/05 00:32:39;;;;;;;9.70;7.70;;;;;;;;;;5042258;28;20582;-77
2022/06/05 00:35:07;;;;;;;14.03;9.70;;;;;;;;;;5038643;28;20307;-77
2022/06/05 00:37:40;;;;;;;11.27;8.37;;;;;;;;;;5040176;28;20735;-77
2022/06/05 00:40:22;;;;;;;15.87;8.93;;;;;;;;;;5041757;28;20196;-76
2022/06/05 00:42:50;;;;;;;17.40;9.63;;;;;;;;;;5041764;28;20256;-77
2022/06/05 00:45:19;;;;;;;13.73;10.23;;;;;;;;;;5040134;28;20429;-77
2022/06/05 00:47:47;;;;;;;16.67;10.73;;;;;;;;;;5039715;28;20238;-77
2022/06/05 00:50:16;;;;;;;14.63;10.63;;;;;;;;;;5042957;28;20291;-77
2022/06/05 00:52:45;;;;;;;11.70;9.00;;;;;;;;;;5043925;28;20727;-76
2022/06/05 00:55:14;;;;;;;15.80;9.30;;;;;;;;;;5041940;28;20302;-76
2022/06/05 00:57:42;;;;;;;14.13;9.63;;;;;;;;;;5040262;28;20242;-75
2022/06/05 01:00:13;;;;;;;13.50;10.07;;;;;;;;;;5040634;28;20286;-77
2022/06/05 01:02:41;;;;;;;11.60;9.33;;;;;;;;;;5040997;28;20732;-77
2022/06/05 01:05:09;;;;;;;10.67;8.37;;;;;;;;;;5038299;28;20311;-76
2022/06/05 01:07:37;;;;;;;10.07;8.40;;;;;;;;;;5038664;28;20283;-77
2022/06/05 01:10:04;;;;;;;10.33;8.30;;;;;;;;;;5039722;28;21110;-77
2022/06/05 01:12:37;;;;;;;10.83;8.07;;;;;;;;;;5038515;28;20242;-77
2022/06/05 01:15:11;;;;;;;13.37;9.20;;;;;;;;;;5041612;28;20794;-77
2022/06/05 01:17:41;;;;;;;12.40;9.73;;;;;;;;;;5041188;28;20281;-77
2022/06/05 01:20:13;;;;;;;12.40;9.07;;;;;;;;;;5045467;28;20229;-77
2022/06/05 01:22:49;;;;;;;13.30;9.07;;;;;;;;;;5039830;28;20703;-77
2022/06/05 01:25:31;;;;;;;11.37;9.00;;;;;;;;;;5043060;28;20250;-78
2022/06/05 01:28:01;;;;;;;12.00;9.80;;;;;;;;;;5043420;28;20203;-77
2022/06/05 01:30:30;;;;;;;13.90;9.77;;;;;;;;;;5037551;28;20204;-78
2022/06/05 01:33:03;;;;;;;16.47;9.70;;;;;;;;;;5034691;28;20326;-77
2022/06/05 01:35:36;;;;;;;11.93;9.43;;;;;;;;;;5039223;28;20254;-77
2022/06/05 01:38:05;;;;;;;15.07;9.23;;;;;;;;;;5041637;28;20761;-77
2022/06/05 01:40:34;;;;;;;13.67;9.70;;;;;;;;;;5040156;28;20286;-77
2022/06/05 01:43:05;;;;;;;11.97;9.70;;;;;;;;;;5041494;28;20215;-77
2022/06/05 01:45:36;;;;;;;12.50;9.53;;;;;;;;;;5038209;28;20227;-77
2022/06/05 01:48:05;;;;;;;10.70;8.73;;;;;;;;;;5038543;28;20549;-77
2022/06/05 01:50:35;;;;;;;12.37;9.47;;;;;;;;;;5038343;28;20294;-77
2022/06/05 01:53:06;;;;;;;12.90;8.40;;;;;;;;;;5038377;28;20205;-78
2022/06/05 01:55:37;;;;;;;11.00;8.13;;;;;;;;;;5039144;28;20219;-78
2022/06/05 01:58:07;;;;;;;11.07;8.60;;;;;;;;;;5043129;28;20204;-78
2022/06/05 02:00:35;;;;;;;15.17;8.83;;;;;;;;;;5039528;28;20278;-77
2022/06/05 02:03:06;;;;;;;11.97;9.33;;;;;;;;;;5041202;28;20213;-76
2022/06/05 02:05:37;;;;;;;11.07;8.20;;;;;;;;;;5037341;28;20778;-77
2022/06/05 02:08:08;;;;;;;10.03;7.73;;;;;;;;;;5040014;28;20195;-78
2022/06/05 02:10:38;;;;;;;11.10;8.67;;;;;;;;;;5037504;28;20278;-77
2022/06/05 02:13:07;;;;;;;11.27;8.43;;;;;;;;;;5034865;28;20299;-77
2022/06/05 02:15:35;;;;;;;11.63;8.50;;;;;;;;;;5033653;28;20226;-77
2022/06/05 02:18:04;;;;;;;13.63;9.00;;;;;;;;;;5039602;28;20213;-77
2022/06/05 02:20:31;;;;;;;13.53;9.53;;;;;;;;;;5038036;28;20246;-76
2022/06/05 02:22:58;;;;;;;13.17;8.60;;;;;;;;;;5038625;28;20214;-77
2022/06/05 02:25:26;;;;;;;10.77;8.37;;;;;;;;;;5040954;28;20244;-77
2022/06/05 02:27:58;;;;;;;16.80;9.20;;;;;;;;;;5038433;28;20223;-77
2022/06/05 02:30:29;;;;;;;10.60;8.63;;;;;;;;;;5037753;28;20305;-77
2022/06/05 02:33:01;;;;;;;10.87;8.73;;;;;;;;;;5041763;28;20580;-76
2022/06/05 02:35:32;;;;;;;14.37;9.30;;;;;;;;;;5036334;28;20306;-78
2022/06/05 02:38:04;;;;;;;12.03;9.23;;;;;;;;;;5041050;28;20204;-77
2022/06/05 02:40:36;;;;;;;16.90;9.30;;;;;;;;;;5040008;28;20199;-77
2022/06/05 02:43:07;;;;;;;10.87;8.73;;;;;;;;;;5040613;28;20199;-77
2022/06/05 02:45:37;;;;;;;12.47;9.30;;;;;;;;;;5038115;28;20316;-77
2022/06/05 02:48:09;;;;;;;14.03;9.63;;;;;;;;;;5041170;28;20477;-78
2022/06/05 02:50:38;;;;;;;13.07;9.50;;;;;;;;;;5044787;28;20241;-77
2022/06/05 02:53:07;;;;;;;12.73;9.20;;;;;;;;;;5042965;28;20205;-77
2022/06/05 02:55:35;;;;;;;11.73;8.83;;;;;;;;;;5039655;28;20219;-78
2022/06/05 02:58:02;;;;;;;12.20;9.47;;;;;;;;;;5041493;28;20287;-77
2022/06/05 03:00:31;;;;;;;13.37;9.50;;;;;;;;;;5039185;28;20203;-77
2022/06/05 03:05:46;;;;;;;12.63;9.00;;;;;;;;;;5034147;28;20237;-77
2022/06/05 03:08:15;;;;;;;11.10;8.73;;;;;;;;;;5037852;28;20200;-77
2022/06/05 03:10:44;;;;;;;13.63;8.53;;;;;;;;;;5039166;28;20259;-76
2022/06/05 03:13:12;;;;;;;11.63;8.97;;;;;;;;;;5041475;28;20203;-76
2022/06/05 03:15:41;;;;;;;12.13;9.07;;;;;;;;;;5040143;28;20312;-77
2022/06/05 03:18:09;;;;;;;11.93;9.40;;;;;;;;;;5039160;28;20285;-76
2022/06/05 03:20:36;;;;;;;13.43;8.73;;;;;;;;;;5040803;28;20214;-77
2022/06/05 03:23:04;;;;;;;12.33;8.83;;;;;;;;;;5039499;28;20234;-78
2022/06/05 03:25:31;;;;;;;10.27;8.10;;;;;;;;;;5038789;28;20234;-77
2022/06/05 03:27:58;;;;;;;12.03;9.00;;;;;;;;;;5042753;28;20210;-75
2022/06/05 03:30:25;;;;;;;12.73;8.73;;;;;;;;;;5043088;28;20226;-77
2022/06/05 03:32:53;;;;;;;10.77;8.37;;;;;;;;;;5045786;28;20298;-77
2022/06/05 03:35:21;;;;;;;13.50;9.30;;;;;;;;;;5047735;28;20223;-77
2022/06/05 03:37:49;;;;;;;11.77;9.07;;;;;;;;;;5044119;28;20295;-75
2022/06/05 03:40:18;;;;;;;12.17;9.13;;;;;;;;;;5038691;28;20238;-75
2022/06/05 03:42:45;;;;;;;13.83;9.53;;;;;;;;;;5044112;28;20257;-76
2022/06/05 03:45:13;;;;;;;11.10;9.23;;;;;;;;;;5042841;28;20309;-77
2022/06/05 03:47:40;;;;;;;13.00;8.97;;;;;;;;;;5043410;28;20211;-76
2022/06/05 03:50:08;;;;;;;12.90;8.80;;;;;;;;;;5048265;28;20223;-77
2022/06/05 03:52:37;;;;;;;13.20;9.33;;;;;;;;;;5044449;28;20353;-78
2022/06/05 03:55:05;;;;;;;14.40;9.60;;;;;;;;;;5045163;28;20250;-77
2022/06/05 03:57:32;;;;;;;13.27;8.97;;;;;;;;;;5046252;28;20200;-76
2022/06/05 03:59:59;;;;;;;13.77;9.73;;;;;;;;;;5047941;28;20203;-75
2022/06/05 04:02:27;;;;;;;13.73;9.57;;;;;;;;;;5044523;28;20199;-77
2022/06/05 04:04:55;;;;;;;11.90;9.40;;;;;;;;;;5041838;28;20697;-76
2022/06/05 04:07:22;;;;;;;14.10;9.17;;;;;;;;;;5039231;28;20195;-77
2022/06/05 04:09:51;;;;;;;14.00;9.27;;;;;;;;;;5043914;28;20223;-77
2022/06/05 04:12:18;;;;;;;11.00;8.90;;;;;;;;;;5042554;28;20224;-77
2022/06/05 04:14:46;;;;;;;14.10;9.60;;;;;;;;;;5040719;28;20306;-77
2022/06/05 04:17:13;;;;;;;11.73;9.63;;;;;;;;;;5041804;28;20298;-77
2022/06/05 04:19:40;;;;;;;13.93;9.20;;;;;;;;;;5041540;28;20652;-76
2022/06/05 04:22:07;;;;;;;11.63;8.87;;;;;;;;;;5039400;28;20242;-77
2022/06/05 04:24:35;;;;;;;10.20;8.10;;;;;;;;;;5039715;28;20220;-77
2022/06/05 04:27:03;;;;;;;11.50;8.80;;;;;;;;;;5040343;28;20650;-76
2022/06/05 04:29:32;;;;;;;12.80;8.70;;;;;;;;;;5038939;28;20226;-77
2022/06/05 04:32:00;;;;;;;11.93;8.53;;;;;;;;;;5040046;28;20206;-77
2022/06/05 04:34:27;;;;;;;11.40;8.53;;;;;;;;;;5038563;28;20230;-76
2022/06/05 04:36:54;;;;;;;14.43;9.60;;;;;;;;;;5040065;28;20217;-76
2022/06/05 04:39:21;;;;;;;14.40;8.70;;;;;;;;;;5038457;28;20290;-76
2022/06/05 04:41:49;;;;;;;11.13;9.00;;;;;;;;;;5039972;28;20210;-76
2022/06/05 04:44:18;;;;;;;11.90;9.07;;;;;;;;;;5038249;28;20231;-77
2022/06/05 04:46:46;;;;;;;10.83;9.17;;;;;;;;;;5040150;28;20217;-77
2022/06/05 04:49:14;;;;;;;14.77;8.80;;;;;;;;;;5039373;28;20314;-77
2022/06/05 04:51:41;;;;;;;10.93;8.10;;;;;;;;;;5045652;28;20201;-76
2022/06/05 04:54:10;;;;;;;10.17;8.60;;;;;;;;;;5039036;28;20242;-76
2022/06/05 04:56:37;;;;;;;11.53;8.70;;;;;;;;;;5040246;28;20199;-77
2022/06/05 04:59:04;;;;;;;10.50;8.57;;;;;;;;;;5040734;28;20576;-77
2022/06/05 05:01:35;;;;;;;14.73;9.03;;;;;;;;;;5042350;28;20209;-77
2022/06/05 05:04:03;;;;;;;11.60;8.70;;;;;;;;;;5039840;28;20646;-77
2022/06/05 05:06:31;;;;;;;12.07;8.57;;;;;;;;;;5036596;28;20210;-78
2022/06/05 05:08:59;;;;;;;11.93;7.97;;;;;;;;;;5039431;28;20302;-77
2022/06/05 05:11:27;;;;;;;13.20;8.00;;;;;;;;;;5041607;28;20316;-77
2022/06/05 05:13:54;;;;;;;10.07;7.37;;;;;;;;;;5045351;28;20230;-78
2022/06/05 05:16:22;;;;;;;11.57;7.93;;;;;;;;;;5039483;28;20210;-77
2022/06/05 05:18:51;;;;;;;13.57;7.40;;;;;;;;;;5039316;28;20198;-77
2022/06/05 05:21:19;;;;;;;10.40;8.07;;;;;;;;;;5040509;28;20279;-77
2022/06/05 05:23:47;;;;;;;12.53;8.00;;;;;;;;;;5039249;28;20223;-76
2022/06/05 05:26:15;;;;;;;11.30;7.80;;;;;;;;;;5037659;28;20291;-77
2022/06/05 05:28:43;;;;;;;11.17;7.93;;;;;;;;;;5040449;28;20716;-76
2022/06/05 05:31:11;;;;;;;9.30;7.40;;;;;;;;;;5042175;28;20238;-76
2022/06/05 05:33:39;;;;;;;9.83;7.13;;;;;;;;;;5040678;28;20286;-77
2022/06/05 05:36:08;;;;;;;11.07;6.90;;;;;;;;;;5038131;28;20811;-77
2022/06/05 05:38:36;;;;;;;9.17;6.80;;;;;;;;;;5039181;28;20207;-76
2022/06/05 05:43:48;;;;;;;8.73;6.30;;;;;;;;;;5041298;28;20861;-76
2022/06/05 05:46:15;;;;;;;7.43;6.20;;;;;;;;;;5040619;28;20237;-78
2022/06/05 05:48:43;;;;;;;8.73;6.37;;;;;;;;;;5042444;28;20711;-76
2022/06/05 05:51:15;;;;;;;9.23;6.00;;;;;;;;;;5040157;28;20772;-77
2022/06/05 05:53:42;;;;;;;8.63;6.57;;;;;;;;;;5041990;28;20705;-77
2022/06/05 05:56:09;;;;;;;7.10;6.30;;;;;;;;;;5039079;28;20874;-78
2022/06/05 05:58:37;;;;;;;8.30;6.40;;;;;;;;;;5039270;28;20207;-78
2022/06/05 06:01:06;;;;;;;7.53;6.30;;;;;;;;;;5039675;28;20213;-78
2022/06/05 06:03:33;;;;;;;8.70;6.20;;;;;;;;;;5037234;28;20281;-80
2022/06/05 06:06:01;;;;;;;12.17;6.57;;;;;;;;;;5039368;28;20795;-76
2022/06/05 06:08:29;;;;;;;8.37;7.00;;;;;;;;;;5046439;28;20294;-77
2022/06/05 06:10:57;;;;;;;7.97;6.40;;;;;;;;;;5037528;28;20253;-77
2022/06/05 06:13:24;;;;;;;8.90;6.87;;;;;;;;;;5038940;28;20224;-76
2022/06/05 06:15:51;;;;;;;9.20;6.70;;;;;;;;;;5040062;28;20262;-77
2022/06/05 06:18:18;;;;;;;8.33;6.70;;;;;;;;;;5036597;28;20754;-77
2022/06/05 06:20:46;;;;;;;8.30;6.30;;;;;;;;;;5039183;28;20223;-75
2022/06/05 06:23:14;;;;;;;10.73;6.70;;;;;;;;;;5038315;28;20294;-76
2022/06/05 06:25:43;;;;;;;8.00;6.67;;;;;;;;;;5037242;28;20219;-76
2022/06/05 06:28:10;;;;;;;10.73;7.53;;;;;;;;;;5039414;28;20289;-77
2022/06/05 06:30:38;;;;;;;9.10;6.30;;;;;;;;;;5037384;28;20657;-77
2022/06/05 06:33:05;;;;;;;12.40;7.13;;;;;;;;;;5038620;28;20207;-75
2022/06/05 06:35:35;;;;;;;10.33;6.70;;;;;;;;;;5038698;28;20259;-77
2022/06/05 06:38:02;;;;;;;8.90;6.80;;;;;;;;;;5039328;28;20219;-77
2022/06/05 06:40:29;;;;;;;9.03;6.70;;;;;;;;;;5038184;28;20227;-77
2022/06/05 06:42:58;;;;;;;10.03;6.43;;;;;;;;;;5040054;28;20234;-76
2022/06/05 06:45:26;;;;;;;7.43;6.20;;;;;;;;;;5039967;28;20752;-76
2022/06/05 06:47:53;;;;;;;9.00;6.73;;;;;;;;;;5041392;28;20318;-76
2022/06/05 06:50:20;;;;;;;7.67;6.57;;;;;;;;;;5043769;28;20287;-76
2022/06/05 06:52:47;;;;;;;7.40;6.30;;;;;;;;;;5040459;28;20199;-76
2022/06/05 06:55:16;;;;;;;10.33;6.53;;;;;;;;;;5044688;28;20310;-77
2022/06/05 06:57:43;;;;;;;9.10;6.87;;;;;;;;;;5040991;28;20211;-76
2022/06/05 07:00:14;;;;;;;9.10;6.87;;;;;;;;;;5038024;28;20660;-76
2022/06/05 07:02:41;;;;;;;7.43;6.60;;;;;;;;;;5042472;28;20776;-76
2022/06/05 07:05:09;;;;;;;10.33;6.80;;;;;;;;;;5048139;28;20312;-77
2022/06/05 07:07:36;;;;;;;12.23;6.93;;;;;;;;;;5044478;28;20214;-77
2022/06/05 07:10:03;;;;;;;8.60;6.43;;;;;;;;;;5043021;28;20229;-77
2022/06/05 07:12:31;;;;;;;9.47;6.87;;;;;;;;;;5043670;28;20299;-78
2022/06/05 07:14:58;;;;;;;9.40;6.70;;;;;;;;;;5038290;28;20233;-79
2022/06/05 07:17:27;;;;;;;7.70;6.30;;;;;;;;;;5042937;28;20299;-76
2022/06/05 07:19:54;;;;;;;8.07;6.50;;;;;;;;;;5043578;28;20207;-76
2022/06/05 07:22:22;;;;;;;8.40;6.73;;;;;;;;;;5042334;28;20203;-76
2022/06/05 07:24:49;;;;;;;10.23;6.67;;;;;;;;;;5044141;28;20345;-76
2022/06/05 07:27:16;;;;;;;10.63;6.63;;;;;;;;;;5044915;28;20278;-76
2022/06/05 07:29:43;;;;;;;8.53;6.67;;;;;;;;;;5044780;28;20239;-76
2022/06/05 07:32:11;;;;;;;9.47;7.23;;;;;;;;;;5046382;28;20572;-77
2022/06/05 07:34:39;;;;;;;8.73;6.77;;;;;;;;;;5043231;28;20718;-77
2022/06/05 07:37:07;;;;;;;11.93;6.97;;;;;;;;;;5047654;28;20235;-77
2022/06/05 07:39:34;;;;;;;7.93;6.40;;;;;;;;;;5045424;28;20230;-76
2022/06/05 07:42:01;;;;;;;7.70;6.40;;;;;;;;;;5043363;28;20203;-76
2022/06/05 07:44:29;;;;;;;8.50;6.43;;;;;;;;;;5041723;28;20229;-77
2022/06/05 07:46:56;;;;;;;9.17;6.40;;;;;;;;;;5045991;28;20213;-79
2022/06/05 07:49:23;;;;;;;7.93;6.53;;;;;;;;;;5044310;28;20202;-77
2022/06/05 07:54:37;;;;;;;9.07;7.10;;;;;;;;;;5043881;28;20227;-77
2022/06/05 07:57:05;;;;;;;11.20;6.73;;;;;;;;;;5041450;28;20292;-79
2022/06/05 07:59:34;;;;;;;7.90;6.73;;;;;;;;;;5045642;28;20687;-78
2022/06/05 08:02:03;;;;;;;8.27;6.93;;;;;;;;;;5046839;28;20286;-77
2022/06/05 08:04:31;;;;;;;9.50;6.87;;;;;;;;;;5041246;28;20227;-78
2022/06/05 08:07:01;;;;;;;8.27;7.00;;;;;;;;;;5045523;28;20337;-78
2022/06/05 08:09:28;;;;;;;10.57;7.07;;;;;;;;;;5042630;28;20665;-78
2022/06/05 08:11:56;;;;;;;8.47;6.60;;;;;;;;;;5043900;28;20667;-78
2022/06/05 08:14:23;;;;;;;10.53;6.70;;;;;;;;;;5041904;28;20268;-79
2022/06/05 08:16:50;;;;;;;11.57;6.50;;;;;;;;;;5045428;28;21471;-77
2022/06/05 08:19:20;;;;;;;8.67;6.50;;;;;;;;;;5042500;28;20210;-77
2022/06/05 08:21:47;;;;;;;9.10;6.50;;;;;;;;;;5042260;28;20650;-78
2022/06/05 08:24:16;;;;;;;9.03;6.87;;;;;;;;;;5043117;28;20259;-77
2022/06/05 08:26:44;;;;;;;10.23;6.93;;;;;;;;;;5041126;28;20287;-77
2022/06/05 08:29:11;;;;;;;8.17;6.30;;;;;;;;;;5047501;28;20568;-78
2022/06/05 08:31:38;;;;;;;9.90;6.43;;;;;;;;;;5040823;28;20353;-78
2022/06/05 08:34:06;;;;;;;8.60;6.97;;;;;;;;;;5048562;28;20206;-78
2022/06/05 08:36:34;;;;;;;7.33;6.40;;;;;;;;;;5037552;28;20213;-78
2022/06/05 08:41:55;;;;;;;12.93;6.53;;;;;;;;;;5045709;28;20411;-77
2022/06/05 08:44:29;;;;;;;8.67;6.70;;;;;;;;;;5042662;28;20259;-77
2022/06/05 08:46:58;;;;;;;7.23;6.40;;;;;;;;;;5040970;28;20286;-78
2022/06/05 08:49:31;;;;;;;9.13;6.80;;;;;;;;;;5039657;28;20234;-78
2022/06/05 08:52:03;;;;;;;7.53;6.63;;;;;;;;;;5043821;28;20230;-78
2022/06/05 08:54:35;;;;;;;9.50;6.80;;;;;;;;;;5043326;28;20254;-79
2022/06/05 08:57:05;;;;;;;9.93;6.90;;;;;;;;;;5036887;28;20207;-78
2022/06/05 08:59:37;;;;;;;14.77;7.23;;;;;;;;;;5036083;28;20282;-78
2022/06/05 09:02:15;;;;;;;8.30;6.80;;;;;;;;;;5042505;28;20242;-78
2022/06/05 09:04:53;;;;;;;6.57;5.97;;;;;;;;;;5037932;28;20314;-78
2022/06/05 09:07:22;;;;;;;9.00;6.27;;;;;;;;;;5042002;28;20230;-76
2022/06/05 09:10:13;;;;;;;8.33;6.77;;;;;;;;;;5078405;22;20217;-74
2022/06/05 09:12:43;;;;;;;8.70;6.90;;;;;;;;;;5072024;28;20233;-75
2022/06/05 09:15:16;;;;;;;8.17;6.53;;;;;;;;;;5066822;28;20332;-75
2022/06/05 09:17:47;;;;;;;9.40;7.03;;;;;;;;;;5053023;28;20284;-75
2022/06/05 09:20:16;;;;;;;9.83;6.87;;;;;;;;;;5057832;28;20627;-76
2022/06/05 09:22:48;;;;;;;9.77;6.90;;;;;;;;;;5058165;28;20203;-75
2022/06/05 09:25:39;;;;;;;12.53;7.07;;;;;;;;;;5058249;28;20222;-75
2022/06/05 09:28:26;;;;;;;9.73;7.17;;;;;;;;;;5059416;28;20206;-75
2022/06/05 09:30:55;;;;;;;9.27;7.50;;;;;;;;;;5056495;28;20333;-75
2022/06/05 09:33:24;;;;;;;10.73;7.10;;;;;;;;;;5055582;28;20290;-75
2022/06/05 09:35:53;;;;;;;9.90;7.10;;;;;;;;;;5057392;28;20656;-75
2022/06/05 09:38:23;;;;;;;12.73;7.00;;;;;;;;;;5059699;28;20271;-76
2022/06/05 09:40:58;;;;;;;9.90;7.20;;;;;;;;;;5055739;28;20955;-75
2022/06/05 09:43:43;;;;;;;10.07;6.63;;;;;;;;;;5062322;28;20206;-75
2022/06/05 09:46:19;;;;;;;9.00;7.00;;;;;;;;;;5053949;28;20219;-76
2022/06/05 09:48:50;;;;;;;11.93;7.70;;;;;;;;;;5056389;28;20300;-75
2022/06/05 09:51:19;;;;;;;8.90;7.40;;;;;;;;;;5058018;28;20222;-75
2022/06/05 09:53:49;;;;;;;8.53;7.40;;;;;;;;;;5057819;28;20200;-75
2022/06/05 09:56:20;;;;;;;11.43;7.53;;;;;;;;;;5059400;28;20755;-77
2022/06/05 09:58:52;;;;;;;11.60;6.90;;;;;;;;;;5056399;28;20233;-76
2022/06/05 10:01:25;;;;;;;8.30;7.23;;;;;;;;;;5056637;28;20199;-76
2022/06/05 10:03:56;;;;;;;8.60;7.60;;;;;;;;;;5055494;28;20250;-75
2022/06/05 10:06:26;;;;;;;9.93;7.27;;;;;;;;;;5052837;28;20225;-75
2022/06/05 10:08:55;;;;;;;8.83;7.30;;;;;;;;;;5058277;28;20267;-76
2022/06/05 10:11:24;;;;;;;10.10;7.40;;;;;;;;;;5049126;28;20254;-75
2022/06/05 10:14:00;;;;;;;9.90;7.93;;;;;;;;;;5056818;28;20214;-74
2022/06/05 10:16:28;;;;;;;8.63;7.13;;;;;;;;;;5054848;28;20630;-75
2022/06/05 10:19:00;;;;;;;8.77;7.33;;;;;;;;;;5056213;28;20240;-74
2022/06/05 10:21:34;;;;;;;7.97;6.77;;;;;;;;;;5054557;28;20290;-75
2022/06/05 10:24:08;;;;;;;9.73;7.63;;;;;;;;;;5055121;28;20673;-76
2022/06/05 10:26:37;;;;;;;8.23;7.33;;;;;;;;;;5056880;28;20225;-74
2022/06/05 10:29:18;;;;;;;8.70;7.40;;;;;;;;;;5052638;28;20218;-74
2022/06/05 10:31:52;;;;;;;9.47;7.50;;;;;;;;;;5054113;28;20219;-75
2022/06/05 10:34:23;;;;;;;9.93;7.50;;;;;;;;;;5056911;28;20647;-75
2022/06/05 10:36:53;;;;;;;9.40;7.00;;;;;;;;;;5058427;28;20295;-75
2022/06/05 10:39:22;;;;;;;9.20;7.30;;;;;;;;;;5056138;28;20293;-75
2022/06/05 10:42:01;;;;;;;9.03;7.47;;;;;;;;;;5053953;28;20652;-75
2022/06/05 10:44:34;;;;;;;9.93;6.80;;;;;;;;;;5053921;28;20741;-75
2022/06/05 10:47:07;;;;;;;9.30;7.37;;;;;;;;;;5055991;28;20676;-75
2022/06/05 10:49:37;;;;;;;9.83;6.77;;;;;;;;;;5054205;28;21331;-76
2022/06/05 10:52:10;;;;;;;11.33;7.33;;;;;;;;;;5055798;28;20313;-75
2022/06/05 10:54:40;;;;;;;7.60;6.77;;;;;;;;;;5054481;28;20258;-75
2022/06/05 10:57:11;;;;;;;8.67;7.07;;;;;;;;;;5045314;28;20202;-75
2022/06/05 10:59:46;;;;;;;9.60;7.03;;;;;;;;;;5048483;28;20207;-75
2022/06/05 11:02:24;;;;;;;9.50;7.20;;;;;;;;;;5051344;28;20621;-75
2022/06/05 11:04:59;;;;;;;8.47;6.53;;;;;;;;;;5054910;28;20236;-75
2022/06/05 11:07:37;;;;;;;7.97;6.60;;;;;;;;;;5051559;28;20204;-75
2022/06/05 11:10:07;;;;;;;7.97;6.17;;;;;;;;;;5050259;28;20610;-75
2022/06/05 11:15:31;;;;;;;10.20;6.77;;;;;;;;;;5050802;28;20260;-76
2022/06/05 11:18:06;;;;;;;7.73;6.13;;;;;;;;;;5053095;28;20286;-76
2022/06/05 11:20:34;;;;;;;6.90;6.20;;;;;;;;;;5053243;28;20209;-75
2022/06/05 11:23:03;;;;;;;8.03;6.33;;;;;;;;;;5053176;28;20640;-76
2022/06/05 11:25:32;;;;;;;12.33;6.63;;;;;;;;;;5052613;28;20310;-75
2022/06/05 11:28:12;;;;;;;7.97;5.90;;;;;;;;;;5052394;28;20217;-75
2022/06/05 11:30:45;;;;;;;9.20;6.10;;;;;;;;;;5053548;28;20199;-75
2022/06/05 11:33:15;;;;;;;6.80;5.83;;;;;;;;;;5050751;28;20597;-76
2022/06/05 11:35:49;;;;;;;7.00;5.93;;;;;;;;;;5045035;28;20322;-76
2022/06/05 11:38:22;;;;;;;7.60;6.37;;;;;;;;;;5055141;28;20198;-76
2022/06/05 11:40:50;;;;;;;9.00;5.73;;;;;;;;;;5051083;28;20533;-76
2022/06/05 11:43:23;;;;;;;8.60;5.77;;;;;;;;;;5053174;28;20235;-76
2022/06/05 11:45:53;;;;;;;7.33;5.87;;;;;;;;;;5052777;28;20247;-77
2022/06/05 11:48:25;;;;;;;8.70;6.10;;;;;;;;;;5055626;28;20267;-75
2022/06/05 11:50:55;;;;;;;8.67;5.77;;;;;;;;;;5054725;28;20226;-75
2022/06/05 11:53:24;;;;;;;7.77;6.30;;;;;;;;;;5059546;28;20305;-75
2022/06/05 11:55:55;;;;;;;7.27;6.27;;;;;;;;;;5056468;28;20357;-75
2022/06/05 11:58:26;;;;;;;8.20;5.80;;;;;;;;;;5054168;28;20202;-76
2022/06/05 12:00:56;;;;;;;6.67;5.77;;;;;;;;;;5060719;28;20198;-76
2022/06/05 12:03:29;;;;;;;7.33;5.90;;;;;;;;;;5051032;28;20203;-76
2022/06/05 12:05:58;;;;;;;7.33;6.17;;;;;;;;;;5058047;28;20305;-76
2022/06/05 12:08:30;;;;;;;10.10;6.30;;;;;;;;;;5057403;28;20214;-75
2022/06/05 12:11:00;;;;;;;6.83;5.90;;;;;;;;;;5058422;28;20656;-76
2022/06/05 12:13:42;;;;;;;8.30;5.80;;;;;;;;;;5058616;28;20229;-76
2022/06/05 12:16:12;;;;;;;10.77;6.07;;;;;;;;;;5055043;28;20218;-75
2022/06/05 12:18:41;;;;;;;10.17;6.20;;;;;;;;;;5049866;28;20255;-75
2022/06/05 12:21:13;;;;;;;7.67;6.20;;;;;;;;;;5053904;28;20290;-76
2022/06/05 12:23:43;;;;;;;8.03;5.73;;;;;;;;;;5054951;28;20207;-76
2022/06/05 12:26:15;;;;;;;8.60;6.07;;;;;;;;;;5057035;28;20218;-76
2022/06/05 12:28:45;;;;;;;8.37;6.23;;;;;;;;;;5054263;28;20954;-75
2022/06/05 12:31:15;;;;;;;8.30;6.10;;;;;;;;;;5060712;28;20252;-75
2022/06/05 12:33:45;;;;;;;8.50;5.90;;;;;;;;;;5056998;28;20767;-76
2022/06/05 12:36:15;;;;;;;7.20;5.87;;;;;;;;;;5058318;28;20215;-75
2022/06/05 12:38:46;;;;;;;7.60;6.00;;;;;;;;;;5047655;28;20671;-76
2022/06/05 12:41:16;;;;;;;9.83;6.33;;;;;;;;;;5055658;28;20576;-76
2022/06/05 12:43:48;;;;;;;8.70;6.47;;;;;;;;;;5052650;28;20198;-76
2022/06/05 12:46:31;;;;;;;7.63;5.87;;;;;;;;;;5063158;28;20222;-75
2022/06/05 12:49:18;;;;;;;7.57;6.30;;;;;;;;;;5056756;28;20209;-76
2022/06/05 12:51:50;;;;;;;7.50;6.37;;;;;;;;;;5049470;28;20214;-75
2022/06/05 12:54:18;;;;;;;12.63;6.20;;;;;;;;;;5051167;28;20341;-75
2022/06/05 12:56:50;;;;;;;7.90;6.53;;;;;;;;;;5054250;28;20209;-74
2022/06/05 12:59:18;;;;;;;8.20;6.73;;;;;;;;;;5047620;28;20206;-75
2022/06/05 13:01:49;;;;;;;9.23;6.63;;;;;;;;;;5048914;28;20203;-74
2022/06/05 13:04:18;;;;;;;8.10;6.73;;;;;;;;;;5053742;28;20226;-75
2022/06/05 13:06:53;;;;;;;7.87;6.60;;;;;;;;;;5057982;28;20289;-75
2022/06/05 13:09:28;;;;;;;8.23;6.70;;;;;;;;;;5051890;28;20210;-74
2022/06/05 13:11:57;;;;;;;6.77;6.00;;;;;;;;;;5057522;28;20309;-75
2022/06/05 13:14:35;;;;;;;8.47;7.00;;;;;;;;;;5053609;28;20249;-75
2022/06/05 13:17:20;;;;;;;9.00;7.03;;;;;;;;;;5055519;28;20633;-75
2022/06/05 13:19:50;;;;;;;11.90;6.90;;;;;;;;;;5054190;28;20203;-76
2022/06/05 13:22:23;;;;;;;7.17;5.93;;;;;;;;;;5057761;28;21529;-76
2022/06/05 13:24:53;;;;;;;10.00;6.97;;;;;;;;;;5055216;28;20484;-75
2022/06/05 13:27:41;;;;;;;8.43;7.03;;;;;;;;;;5058712;28;20652;-75
2022/06/05 13:30:12;;;;;;;9.23;7.20;;;;;;;;;;5053510;28;20533;-76
2022/06/05 13:32:49;;;;;;;9.17;7.90;;;;;;;;;;5057615;28;20234;-75
2022/06/05 13:35:21;;;;;;;11.57;7.33;;;;;;;;;;5058511;28;20230;-75
2022/06/05 13:37:51;;;;;;;10.10;7.90;;;;;;;;;;5055838;28;20202;-77
2022/06/05 13:40:23;;;;;;;9.77;7.37;;;;;;;;;;5058820;28;20256;-76
2022/06/05 13:42:52;;;;;;;11.27;8.03;;;;;;;;;;5057029;28;20524;-76
2022/06/05 13:45:27;;;;;;;11.90;8.70;;;;;;;;;;5054628;28;20592;-76
2022/06/05 13:47:59;;;;;;;14.00;8.23;;;;;;;;;;5054145;28;20201;-76
2022/06/05 13:50:34;;;;;;;12.47;8.17;;;;;;;;;;5058448;28;20224;-77
2022/06/05 13:53:09;;;;;;;9.43;7.70;;;;;;;;;;5058307;28;20305;-76
2022/06/05 13:55:38;;;;;;;11.53;8.23;;;;;;;;;;5055519;28;20253;-75
2022/06/05 13:58:12;;;;;;;12.20;8.20;;;;;;;;;;5060478;28;20288;-76
2022/06/05 14:00:48;;;;;;;10.00;7.83;;;;;;;;;;5062089;28;20234;-77
2022/06/05 14:03:19;;;;;;;10.10;7.37;;;;;;;;;;5062130;28;20199;-77
2022/06/05 14:05:49;;;;;;;14.40;7.37;;;;;;;;;;5062570;28;20223;-76
2022/06/05 14:08:24;;;;;;;10.10;7.50;;;;;;;;;;5063388;28;20294;-77
2022/06/05 14:10:55;;;;;;;9.27;7.53;;;;;;;;;;5062386;28;20328;-74
2022/06/05 14:13:23;;;;;;;10.93;7.67;;;;;;;;;;5055935;28;20361;-77
2022/06/05 14:15:51;;;;;;;11.37;7.67;;;;;;;;;;5052892;28;20708;-76
2022/06/05 14:18:23;;;;;;;8.37;6.70;;;;;;;;;;5056190;28;20230;-75
2022/06/05 14:20:51;;;;;;;10.07;7.47;;;;;;;;;;5057103;28;20209;-76
2022/06/05 14:23:21;;;;;;;13.00;7.43;;;;;;;;;;5058498;28;20202;-76
2022/06/05 14:25:51;;;;;;;10.70;7.00;;;;;;;;;;5053497;28;20218;-76
2022/06/05 14:28:19;;;;;;;9.07;6.97;;;;;;;;;;5054558;28;20214;-77
2022/06/05 14:30:53;;;;;;;12.63;7.27;;;;;;;;;;5057059;28;20747;-76
2022/06/05 14:33:24;;;;;;;9.67;7.50;;;;;;;;;;5054042;28;20871;-75
2022/06/05 14:35:52;;;;;;;8.10;6.63;;;;;;;;;;5054984;28;20222;-77
2022/06/05 14:38:21;;;;;;;9.40;7.10;;;;;;;;;;5056919;28;20213;-75
2022/06/05 14:40:52;;;;;;;9.70;7.50;;;;;;;;;;5056803;28;20301;-76
2022/06/05 14:43:23;;;;;;;11.97;8.30;;;;;;;;;;5053563;28;20206;-76
2022/06/05 14:45:53;;;;;;;11.93;7.50;;;;;;;;;;5053846;28;20316;-75
2022/06/05 14:48:25;;;;;;;10.07;7.73;;;;;;;;;;5054130;28;20214;-76
2022/06/05 14:50:56;;;;;;;10.93;8.40;;;;;;;;;;5055241;28;20305;-75
2022/06/05 14:53:41;;;;;;;9.60;7.70;;;;;;;;;;5052236;28;20227;-75
2022/06/05 14:59:24;;;;;;;11.03;8.50;;;;;;;;;;5056777;28;20209;-76
2022/06/05 15:01:55;;;;;;;15.33;8.40;;;;;;;;;;5053236;28;20618;-76
2022/06/05 15:04:28;;;;;;;13.23;8.30;;;;;;;;;;5059545;28;20344;-75
2022/06/05 15:07:00;;;;;;;10.73;8.97;;;;;;;;;;5059424;28;20222;-75
2022/06/05 15:09:30;;;;;;;13.27;8.87;;;;;;;;;;5064980;22;20648;-77